X  Schlie├čen Metar Luftfahrt Wetterdaten     EDDS Stuttgart Airport
Temperatur
9°C Temperatur
8°C Taupunkt
94% Feuchtigkeit



Wind
10 KM/H
6 MPH
3 M/S
5 KTS



Kein Wind
Nord
Aktuelle Wetterlage

Leicht  Regen Leicht Regen
Luftdruck 1005.92 (hPa) - 29.7 (inHg)
Sichtweite 6.2 (Meile) - 10 (km)
Flughafen
Flughafen Code EDDS

Position : Stuttgart Airport
Entfernung: 10 (km)

Metar:
EDDS 260850Z VRB05KT 9999 -RA FEW005 BKN042 09/08 Q1006 NOSIG

Zeit: 26-10-2020 09:50 CET